Map

Track Data

SID SEASON NUMBER BASIN SUBBASIN NAME ISO_TIME NATURE LAT LON WMO_WIND WMO_PRES WMO_AGENCY TRACK_TYPE DIST2LAND LANDFALL IFLAG USA_AGENCY USA_ATCF_ID USA_LAT USA_LON USA_RECORD USA_STATUS USA_WIND USA_PRES USA_SSHS USA_R34_NE USA_R34_SE USA_R34_SW USA_R34_NW USA_R50_NE USA_R50_SE USA_R50_SW USA_R50_NW USA_R64_NE USA_R64_SE USA_R64_SW USA_R64_NW USA_POCI USA_ROCI USA_RMW USA_EYE TOKYO_LAT TOKYO_LON TOKYO_GRADE TOKYO_WIND TOKYO_PRES TOKYO_R50_DIR TOKYO_R50_LONG TOKYO_R50_SHORT TOKYO_R30_DIR TOKYO_R30_LONG TOKYO_R30_SHORT TOKYO_LAND CMA_LAT CMA_LON CMA_CAT CMA_WIND CMA_PRES HKO_LAT HKO_LON HKO_CAT HKO_WIND HKO_PRES NEWDELHI_LAT NEWDELHI_LON NEWDELHI_GRADE NEWDELHI_WIND NEWDELHI_PRES NEWDELHI_CI NEWDELHI_DP NEWDELHI_POCI REUNION_LAT REUNION_LON REUNION_TYPE REUNION_WIND REUNION_PRES REUNION_TNUM REUNION_CI REUNION_RMW REUNION_R34_NE REUNION_R34_SE REUNION_R34_SW REUNION_R34_NW REUNION_R50_NE REUNION_R50_SE REUNION_R50_SW REUNION_R50_NW REUNION_R64_NE REUNION_R64_SE REUNION_R64_SW REUNION_R64_NW BOM_LAT BOM_LON BOM_TYPE BOM_WIND BOM_PRES BOM_TNUM BOM_CI BOM_RMW BOM_R34_NE BOM_R34_SE BOM_R34_SW BOM_R34_NW BOM_R50_NE BOM_R50_SE BOM_R50_SW BOM_R50_NW BOM_R64_NE BOM_R64_SE BOM_R64_SW BOM_R64_NW BOM_ROCI BOM_POCI BOM_EYE BOM_POS_METHOD BOM_PRES_METHOD NADI_LAT NADI_LON NADI_CAT NADI_WIND NADI_PRES WELLINGTON_LAT WELLINGTON_LON WELLINGTON_WIND WELLINGTON_PRES DS824_LAT DS824_LON DS824_STAGE DS824_WIND DS824_PRES TD9636_LAT TD9636_LON TD9636_STAGE TD9636_WIND TD9636_PRES TD9635_LAT TD9635_LON TD9635_WIND TD9635_PRES TD9635_ROCI NEUMANN_LAT NEUMANN_LON NEUMANN_CLASS NEUMANN_WIND NEUMANN_PRES MLC_LAT MLC_LON MLC_CLASS MLC_WIND MLC_PRES USA_GUST BOM_GUST BOM_GUST_PER REUNION_GUST REUNION_GUST_PER USA_SEAHGT USA_SEARAD_NE USA_SEARAD_SE USA_SEARAD_SW USA_SEARAD_NW STORM_SPEED STORM_DIR
1885052S14070 1885 12 SI MM NOT_NAMED 1885-02-21 06:00:00 NR -13.6000 70.4000 reunion main 1534 1519 _____O________ -1 -13.6000 70.4000 99 9.90000 4 221
1885052S14070 1885 12 SI MM NOT_NAMED 1885-02-21 09:00:00 NR -13.7577 70.2568 main 1513 1489 _____P________ -1 -13.7577 70.2568 99 4 222
1885052S14070 1885 12 SI MM NOT_NAMED 1885-02-21 12:00:00 NR -13.9158 70.1129 main 1489 1468 _____P________ -1 -13.9158 70.1129 99 4 221
1885052S14070 1885 12 SI MM NOT_NAMED 1885-02-21 15:00:00 NR -14.0748 69.9675 main 1468 1454 _____P________ -1 -14.0748 69.9675 99 3 217
1885052S14070 1885 12 SI MM NOT_NAMED 1885-02-21 18:00:00 NR -14.1681 69.9162 main 1454 1439 _____P____O___ -1 -14.2351 69.8203 99 -13.9000 70.3000 7 3 213
1885052S14070 1885 12 SI MM NOT_NAMED 1885-02-21 21:00:00 NR -14.3311 69.7930 main 1439 1409 _____P____P___ -1 -14.3974 69.6705 99 -14.1987 70.0381 7 5 217
1885052S14070 1885 12 SI MM NOT_NAMED 1885-02-22 00:00:00 NR -14.5301 69.6303 main 1409 1389 _____P____P___ -1 -14.5619 69.5176 99 -14.4878 69.7807 7 5 219
1885052S14070 1885 12 SI MM NOT_NAMED 1885-02-22 03:00:00 NR -14.7436 69.4469 main 1380 1359 _____P____P___ -1 -14.7293 69.3610 99 -14.7580 69.5329 7 6 221
1885052S14070 1885 12 SI MM NOT_NAMED 1885-02-22 06:00:00 NR -14.9500 69.2500 reunion main 1359 1330 _____O____O___ -1 -14.9000 69.2000 99 9.90000 -15.0000 69.3000 7 5 223
1885052S14070 1885 12 SI MM NOT_NAMED 1885-02-22 09:00:00 NR -15.1410 69.0608 main 1330 1301 _____P____P___ -1 -15.0742 69.0345 99 -15.2077 69.0870 7 5 224
1885052S14070 1885 12 SI MM NOT_NAMED 1885-02-22 12:00:00 NR -15.3192 68.8817 main 1301 1271 _____P____P___ -1 -15.2510 68.8660 99 -15.3874 68.8973 7 5 224
1885052S14070 1885 12 SI MM NOT_NAMED 1885-02-22 15:00:00 NR -15.4888 68.7152 main 1271 1257 _____P____P___ -1 -15.4292 68.6964 99 -15.5484 68.7339 7 5 223
1885052S14070 1885 12 SI MM NOT_NAMED 1885-02-22 18:00:00 NR -15.6538 68.5638 main 1252 1228 _____P____O___ -1 -15.6076 68.5276 99 -15.7000 68.6000 7 4 219
1885052S14070 1885 12 SI MM NOT_NAMED 1885-02-22 21:00:00 NR -15.8190 68.4349 main 1228 1208 _____P____P___ -1 -15.7851 68.3617 99 -15.8530 68.5082 7 4 216
1885052S14070 1885 12 SI MM NOT_NAMED 1885-02-23 00:00:00 NR -15.9801 68.3213 main 1208 1194 _____P____P___ -1 -15.9604 68.2004 99 -15.9998 68.4422 7 4 214
1885052S14070 1885 12 SI MM NOT_NAMED 1885-02-23 03:00:00 NR -16.1396 68.2130 main 1194 1175 _____P____P___ -1 -16.1324 68.0459 99 -16.1468 68.3801 7 4 213
1885052S14070 1885 12 SI MM NOT_NAMED 1885-02-23 06:00:00 NR -16.3000 68.1000 reunion main 1175 1156 _____O____O___ -1 -16.3000 67.9000 99 9.90000 -16.3000 68.3000 7 4 216
1885052S14070 1885 12 SI MM NOT_NAMED 1885-02-23 09:00:00 NR -16.4646 67.9651 main 1156 1132 _____P____P___ -1 -16.4572 67.7667 99 -16.4719 68.1635 7 4 219
1885052S14070 1885 12 SI MM NOT_NAMED 1885-02-23 12:00:00 NR -16.6301 67.8247 main 1132 1114 _____P____P___ -1 -16.6101 67.6417 99 -16.6501 68.0076 7 4 219
1885052S14070 1885 12 SI MM NOT_NAMED 1885-02-23 15:00:00 NR -16.7939 67.6859 main 1114 1100 _____P____P___ -1 -16.7597 67.5238 99 -16.8282 67.8479 7 4 218
1885052S14070 1885 12 SI MM NOT_NAMED 1885-02-23 18:00:00 NR -16.9536 67.5559 main 1096 1082 _____P____O___ -1 -16.9072 67.4119 99 -17.0000 67.7000 7 4 217
1885052S14070 1885 12 SI MM NOT_NAMED 1885-02-23 21:00:00 NR -17.1035 67.4451 main 1072 1058 _____P____P___ -1 -17.0538 67.3047 99 -17.1531 67.5855 7 4 214
1885052S14070 1885 12 SI MM NOT_NAMED 1885-02-24 00:00:00 NR -17.2503 67.3430 main 1054 1050 _____P____P___ -1 -17.2007 67.2011 99 -17.2999 67.4848 7 4 213
1885052S14070 1885 12 SI MM NOT_NAMED 1885-02-24 03:00:00 NR -17.3980 67.2458 main 1040 1037 _____P____P___ -1 -17.3491 67.1000 99 -17.4468 67.3917 7 4 212
1885052S14070 1885 12 SI MM NOT_NAMED 1885-02-24 06:00:00 NR -17.5500 67.1500 reunion main 1037 1019 _____O____O___ -1 -17.5000 67.0000 99 9.90000 -17.6000 67.3000 7 4 211
1885052S14070 1885 12 SI MM NOT_NAMED 1885-02-24 09:00:00 NR -17.7099 67.0496 main 1009 1003 _____P____P___ -1 -17.6521 66.8952 99 -17.7678 67.2040 7 4 210
1885052S14070 1885 12 SI MM NOT_NAMED 1885-02-24 12:00:00 NR -17.8740 66.9499 main 992 989 _____P____P___ -1 -17.8055 66.7925 99 -17.9425 67.1074 7 4 210
1885052S14070 1885 12 SI MM NOT_NAMED 1885-02-24 15:00:00 NR -18.0411 66.8493 main 979 973 _____P____P___ -1 -17.9612 66.6915 99 -18.1209 67.0071 7 4 210
1885052S14070 1885 12 SI MM NOT_NAMED 1885-02-24 18:00:00 NR -18.2099 66.7460 main 963 947 _____P____O___ -1 -18.1199 66.5920 99 -18.3000 66.9000 7 4 211
1885052S14070 1885 12 SI MM NOT_NAMED 1885-02-24 21:00:00 NR -18.3766 66.6358 main 947 934 _____P____P___ -1 -18.2823 66.4935 99 -18.4710 66.7781 7 4 212
1885052S14070 1885 12 SI MM NOT_NAMED 1885-02-25 00:00:00 NR -18.5459 66.5228 main 934 918 _____P____P___ -1 -18.4493 66.3956 99 -18.6425 66.6500 7 4 212
1885052S14070 1885 12 SI MM NOT_NAMED 1885-02-25 03:00:00 NR -18.7197 66.4099 main 918 903 _____P____P___ -1 -18.6216 66.2979 99 -18.8178 66.5218 7 4 211
1885052S14070 1885 12 SI MM NOT_NAMED 1885-02-25 06:00:00 NR -18.9000 66.3000 reunion main 903 889 _____O____O___ -1 -18.8000 66.2000 99 9.90000 -19.0000 66.4000 7 4 209
1885052S14070 1885 12 SI MM NOT_NAMED 1885-02-25 09:00:00 NR -19.0885 66.1944 main 889 875 _____P____P___ -1 -18.9841 66.0961 99 -19.1928 66.2927 7 4 207
1885052S14070 1885 12 SI MM NOT_NAMED 1885-02-25 12:00:00 NR -19.2834 66.0921 main 875 861 _____P____P___ -1 -19.1744 65.9918 99 -19.3925 66.1924 7 4 205
1885052S14070 1885 12 SI MM NOT_NAMED 1885-02-25 15:00:00 NR -19.4829 65.9918 main 861 848 _____P____P___ -1 -19.3699 65.8878 99 -19.5959 66.0958 7 4 205
1885052S14070 1885 12 SI MM NOT_NAMED 1885-02-25 18:00:00 NR -19.6850 65.8925 main 848 836 _____P____O___ -1 -19.5700 65.7849 99 -19.8000 66.0000 7 4 205
1885052S14070 1885 12 SI MM NOT_NAMED 1885-02-25 21:00:00 NR -19.8849 65.7899 main 836 824 _____P____P___ -1 -19.7739 65.6839 99 -19.9959 65.8959 7 4 205
1885052S14070 1885 12 SI MM NOT_NAMED 1885-02-26 00:00:00 NR -20.0866 65.6890 main 824 813 _____P____P___ -1 -19.9806 65.5856 99 -20.1925 65.7924 7 4 204
1885052S14070 1885 12 SI MM NOT_NAMED 1885-02-26 03:00:00 NR -20.2912 65.5917 main 813 802 _____P____P___ -1 -20.1896 65.4907 99 -20.3928 65.6928 7 5 203
1885052S14070 1885 12 SI MM NOT_NAMED 1885-02-26 06:00:00 NR -20.5000 65.5000 reunion main 802 792 _____O____O___ -1 -20.4000 65.4000 99 9.90000 -20.6000 65.6000 7 5 201
1885052S14070 1885 12 SI MM NOT_NAMED 1885-02-26 09:00:00 NR -20.7111 65.4156 main 792 783 _____P____P___ -1 -20.5963 65.3135 99 -20.8259 65.5177 7 5 200
1885052S14070 1885 12 SI MM NOT_NAMED 1885-02-26 12:00:00 NR -20.9254 65.3368 main 783 783 _____P____P___ -1 -20.7934 65.2311 99 -21.0575 65.4424 7 5 198
1885052S14070 1885 12 SI MM NOT_NAMED 1885-02-26 15:00:00 NR -21.1392 65.2616 main 785 775 _____P____P___ -1 -20.9931 65.1523 99 -21.2853 65.3709 7 4 198
1885052S14070 1885 12 SI MM NOT_NAMED 1885-02-26 18:00:00 NR -21.3487 65.1884 main 777 769 _____P____O___ -1 -21.1974 65.0768 99 -21.5000 65.3000 7 4 199
1885052S14070 1885 12 SI MM NOT_NAMED 1885-02-26 21:00:00 NR -21.5407 65.1146 main 769 763 _____P____P___ -1 -21.4084 65.0043 99 -21.6731 65.2249 7 4 200
1885052S14070 1885 12 SI MM NOT_NAMED 1885-02-27 00:00:00 NR -21.7314 65.0420 main 763 763 _____P____P___ -1 -21.6278 64.9342 99 -21.8350 65.1498 7 4 198
1885052S14070 1885 12 SI MM NOT_NAMED 1885-02-27 03:00:00 NR -21.9310 64.9705 main 767 760 _____P____P___ -1 -21.8577 64.8662 99 -22.0044 65.0748 7 4 197
1885052S14070 1885 12 SI MM NOT_NAMED 1885-02-27 06:00:00 NR -22.1500 64.9000 reunion main 762 758 _____O____O___ -1 -22.1000 64.8000 99 9.90000 -22.2000 65.0000 7 5 196
1885052S14070 1885 12 SI MM NOT_NAMED 1885-02-27 09:00:00 NR -22.4066 64.8222 main 761 761 _____P____P___ -1 -22.3711 64.7235 99 -22.4422 64.9210 7 6 195
1885052S14070 1885 12 SI MM NOT_NAMED 1885-02-27 12:00:00 NR -22.6844 64.7453 main 762 762 _____P____P___ -1 -22.6563 64.6480 99 -22.7125 64.8425 7 6 193
1885052S14070 1885 12 SI MM NOT_NAMED 1885-02-27 15:00:00 NR -22.9762 64.6714 main 774 768 _____P____P___ -1 -22.9508 64.5749 99 -23.0016 64.7678 7 6 193
1885052S14070 1885 12 SI MM NOT_NAMED 1885-02-27 18:00:00 NR -23.2750 64.6029 main 777 776 _____P____O___ -1 -23.2500 64.5058 99 -23.3000 64.7000 7 6 191
1885052S14070 1885 12 SI MM NOT_NAMED 1885-02-27 21:00:00 NR -23.5746 64.5417 main 781 781 _____P____P___ -1 -23.5493 64.4421 99 -23.6000 64.6413 7 6 192
1885052S14070 1885 12 SI MM NOT_NAMED 1885-02-28 00:00:00 NR -23.8679 64.4732 main 796 792 _____P____P___ -1 -23.8438 64.3856 99 -23.9000 64.5901 7 6 192
1885052S14070 1885 12 SI MM NOT_NAMED 1885-02-28 03:00:00 NR -24.1526 64.4064 main 803 803 _____P____P___ -1 -24.1289 64.3377 99 -24.2000 64.5438 7 6 192
1885052S14070 1885 12 SI MM NOT_NAMED 1885-02-28 06:00:00 NR -24.4200 64.3400 reunion main 805 805 _____O____O___ -1 -24.4000 64.3000 99 9.90000 -24.5000 64.5000 7 5 193
1885052S14070 1885 12 SI MM NOT_NAMED 1885-02-28 09:00:00 NR -24.6535 64.2737 main 823 823 _____P________ -1 -24.6535 64.2737 99 7 5 189
1885052S14070 1885 12 SI MM NOT_NAMED 1885-02-28 12:00:00 NR -24.8905 64.2578 main 836 836 _____P________ -1 -24.8905 64.2578 99 7 5 0
1885052S14070 1885 12 SI MM NOT_NAMED 1885-02-28 15:00:00 NR -25.1136 64.2510 main 849 849 _____P________ -1 -25.1136 64.2510 99 7 4 184
1885052S14070 1885 12 SI MM NOT_NAMED 1885-02-28 18:00:00 NR -25.3249 64.2516 main 862 862 _____P________ -1 -25.3249 64.2516 99 4 0
1885052S14070 1885 12 SI MM NOT_NAMED 1885-02-28 21:00:00 NR -25.5268 64.2584 main 876 876 _____P________ -1 -25.5268 64.2584 99 4 177
1885052S14070 1885 12 SI MM NOT_NAMED 1885-03-01 00:00:00 NR -25.7218 64.2697 main 890 890 _____P________ -1 -25.7218 64.2697 99 4 177
1885052S14070 1885 12 SI MM NOT_NAMED 1885-03-01 03:00:00 NR -25.9121 64.2841 main 904 904 _____P________ -1 -25.9121 64.2841 99 4 0
1885052S14070 1885 12 SI MM NOT_NAMED 1885-03-01 06:00:00 NR -26.1000 64.3000 reunion main 919 _____O________ -1 -26.1000 64.3000 99 9.90000 4 172

About IBTrACS Database

This database is a web-friendly format of International Best Track Archive for Climate Stewardship (IBTrACS), a global best track data archive curated by NOAA dating back to 1842.

Updated: 2021-11-26